Time;durP1;ratioP1;P1;durP2;ratioP2;P2;SDS_P1;SDS_P2;PMS_P1;PMS_P2;Temp;Humidity;BMP_temperature;BMP_pressure;BME280_temperature;BME280_humidity;BME280_pressure;Samples;Min_cycle;Max_cycle;Signal;HPM_P1;HPM_P2
2023/03/25 00:00:06;;;;;;;3.00;1.60;;;;;;;12.39;53.70;99687.91;686093;28;1249;-82
2023/03/25 00:00:27;;;;;;;2.42;1.50;;;;;;;12.37;54.17;99685.31;683219;29;1115;-81
2023/03/25 00:00:48;;;;;;;1.50;1.30;;;;;;;12.34;53.85;99682.66;680608;29;1907;-81
2023/03/25 00:01:14;;;;;;;2.35;1.67;;;;;;;12.41;54.31;99707.97;683215;28;1171;-80
2023/03/25 00:01:36;;;;;;;1.83;1.58;;;;;;;12.36;54.15;99688.78;685984;28;1097;-81
2023/03/25 00:01:57;;;;;;;1.73;1.50;;;;;;;12.33;54.26;99694.88;685841;28;1255;-81
2023/03/25 00:02:19;;;;;;;1.70;1.50;;;;;;;12.30;54.50;99694.84;680619;29;1114;-82
2023/03/25 00:02:41;;;;;;;2.08;1.50;;;;;;;12.25;54.57;99686.13;685745;28;1180;-82
2023/03/25 00:03:03;;;;;;;3.00;1.58;;;;;;;12.26;54.76;99692.22;685863;28;1268;-82
2023/03/25 00:03:25;;;;;;;2.90;1.50;;;;;;;12.25;55.00;99699.22;683240;29;1242;-82
2023/03/25 00:03:49;;;;;;;3.15;1.50;;;;;;;12.16;55.49;99686.09;683344;29;1405;-82
2023/03/25 00:04:09;;;;;;;2.53;1.38;;;;;;;12.14;55.35;99682.59;685902;28;1021;-82
2023/03/25 00:04:31;;;;;;;3.00;1.38;;;;;;;12.10;55.26;99686.06;683250;29;1153;-81
2023/03/25 00:04:52;;;;;;;3.08;1.40;;;;;;;12.16;55.62;99705.25;685866;28;1271;-81
2023/03/25 00:05:14;;;;;;;3.30;1.60;;;;;;;12.07;55.92;99698.25;683261;29;1114;-81
2023/03/25 00:05:38;;;;;;;2.50;1.50;;;;;;;12.09;56.00;99689.56;688445;28;1325;-81
2023/03/25 00:06:06;;;;;;;2.00;1.30;;;;;;;12.10;55.60;99696.53;688606;28;1130;-82
2023/03/25 00:06:27;;;;;;;2.10;1.50;;;;;;;11.99;55.97;99689.50;685813;28;1367;-81
2023/03/25 00:06:47;;;;;;;2.03;1.60;;;;;;;12.05;56.26;99699.97;683091;28;1271;-82
2023/03/25 00:07:21;;;;;;;2.07;1.70;;;;;;;12.05;55.87;99686.91;683276;29;1173;-81
2023/03/25 00:07:43;;;;;;;3.08;1.70;;;;;;;12.04;55.88;99686.94;688446;28;961;-82
2023/03/25 00:08:04;;;;;;;3.53;1.67;;;;;;;12.06;56.25;99696.50;688478;28;1205;-81
2023/03/25 00:08:25;;;;;;;3.85;1.75;;;;;;;12.06;56.02;99691.28;685930;28;1200;-82
2023/03/25 00:08:46;;;;;;;2.30;1.52;;;;;;;12.08;56.17;99699.13;683200;29;1372;-81
2023/03/25 00:09:07;;;;;;;2.20;1.40;;;;;;;12.01;56.12;99681.66;684563;28;1047;-81
2023/03/25 00:09:27;;;;;;;2.30;1.40;;;;;;;12.05;56.35;99692.13;688549;28;1241;-80
2023/03/25 00:09:48;;;;;;;2.20;1.35;;;;;;;12.03;56.34;99675.56;683157;29;1166;-81
2023/03/25 00:10:10;;;;;;;3.22;1.40;;;;;;;12.07;56.01;99690.41;685916;28;972;-81
2023/03/25 00:10:31;;;;;;;2.50;1.40;;;;;;;12.11;56.14;99698.28;680529;29;1336;-81
2023/03/25 00:10:56;;;;;;;3.30;1.50;;;;;;;12.05;56.28;99684.28;680687;29;1198;-81
2023/03/25 00:11:16;;;;;;;2.90;1.50;;;;;;;12.02;56.50;99681.69;683125;29;1019;-81
2023/03/25 00:11:37;;;;;;;2.97;1.50;;;;;;;12.03;56.39;99687.75;685825;28;1190;-81
2023/03/25 00:11:58;;;;;;;1.95;1.50;;;;;;;12.03;56.39;99685.16;685984;28;1069;-82
2023/03/25 00:12:18;;;;;;;1.73;1.50;;;;;;;12.06;56.45;99688.66;683109;29;1115;-81
2023/03/25 00:12:41;;;;;;;1.60;1.42;;;;;;;12.04;56.50;99677.31;685822;28;1387;-82
2023/03/25 00:13:04;;;;;;;2.25;1.40;;;;;;;12.08;56.58;99693.91;685850;28;1163;-81
2023/03/25 00:13:25;;;;;;;2.10;1.30;;;;;;;12.03;56.43;99683.41;685952;28;1044;-81
2023/03/25 00:13:47;;;;;;;2.70;1.40;;;;;;;12.11;56.28;99693.03;685933;28;1149;-81
2023/03/25 00:14:07;;;;;;;3.90;1.55;;;;;;;12.06;56.37;99688.66;685981;28;1029;-81
2023/03/25 00:14:28;;;;;;;4.33;1.60;;;;;;;12.16;56.28;99696.56;685998;28;1108;-82
2023/03/25 00:14:54;;;;;;;3.85;1.60;;;;;;;12.12;56.29;99684.34;683208;29;1165;-81
2023/03/25 00:15:15;;;;;;;2.97;1.50;;;;;;;12.12;56.16;99692.19;683131;29;1124;-82
2023/03/25 00:15:35;;;;;;;3.60;1.90;;;;;;;12.14;56.23;99693.03;683099;29;1406;-81
2023/03/25 00:15:57;;;;;;;3.85;1.80;;;;;;;12.27;55.88;99700.09;683377;29;832;-81
2023/03/25 00:16:17;;;;;;;3.78;1.90;;;;;;;12.27;55.94;99714.88;683067;29;1138;-80
2023/03/25 00:16:38;;;;;;;2.63;1.50;;;;;;;12.14;56.05;99683.47;683037;29;1277;-82
2023/03/25 00:17:00;;;;;;;3.92;1.65;;;;;;;12.25;55.52;99693.09;683038;29;1324;-81
2023/03/25 00:17:21;;;;;;;2.63;1.50;;;;;;;12.14;56.08;99693.03;685781;28;1374;-81
2023/03/25 00:17:42;;;;;;;3.70;1.70;;;;;;;12.17;55.55;99693.06;685796;28;1109;-82
2023/03/25 00:18:03;;;;;;;2.53;1.60;;;;;;;12.22;55.97;99704.41;683190;29;1350;-81
2023/03/25 00:18:28;;;;;;;2.95;1.70;;;;;;;12.15;55.56;99694.78;683134;29;1313;-81
2023/03/25 00:18:50;;;;;;;2.70;1.70;;;;;;;12.13;56.10;99693.91;683174;29;1393;-82
2023/03/25 00:19:10;;;;;;;4.32;1.80;;;;;;;12.12;55.90;99700.91;685791;28;1383;-82
2023/03/25 00:19:32;;;;;;;3.73;1.50;;;;;;;12.11;55.89;99693.03;685837;28;1291;-81
2023/03/25 00:20:04;;;;;;;3.22;1.25;;;;;;;12.15;55.63;99689.56;685917;28;1475;-81
2023/03/25 00:20:26;;;;;;;2.20;1.20;;;;;;;12.22;55.78;99707.03;683156;28;1260;-81
2023/03/25 00:20:51;;;;;;;1.75;1.20;;;;;;;12.23;55.79;99708.78;685764;28;1914;-82
2023/03/25 00:21:13;;;;;;;2.08;1.35;;;;;;;12.16;55.90;99701.78;685837;28;1037;-82
2023/03/25 00:21:34;;;;;;;3.00;1.55;;;;;;;12.13;55.85;99686.97;685682;28;1363;-82
2023/03/25 00:21:54;;;;;;;4.80;1.60;;;;;;;12.20;55.77;99693.97;685984;28;808;-82
2023/03/25 00:22:17;;;;;;;4.43;1.52;;;;;;;12.24;55.55;99707.94;685852;28;1326;-82
2023/03/25 00:22:43;;;;;;;1.77;1.30;;;;;;;12.19;55.48;99701.78;688597;28;1044;-82
2023/03/25 00:23:03;;;;;;;1.90;1.30;;;;;;;12.15;55.74;99694.78;688472;28;1135;-82
2023/03/25 00:23:24;;;;;;;1.50;1.20;;;;;;;12.20;55.83;99703.53;688586;28;1210;-81
2023/03/25 00:23:45;;;;;;;2.00;1.37;;;;;;;12.18;55.86;99700.06;685829;28;1242;-81
2023/03/25 00:24:05;;;;;;;1.80;1.40;;;;;;;12.15;55.84;99697.41;688501;28;1272;-80
2023/03/25 00:24:26;;;;;;;1.65;1.50;;;;;;;12.13;55.92;99691.31;688550;28;1287;-82
2023/03/25 00:24:47;;;;;;;2.28;1.60;;;;;;;12.13;55.72;99696.53;683230;29;1190;-82
2023/03/25 00:25:10;;;;;;;2.35;1.50;;;;;;;12.12;55.96;99705.25;677972;29;1115;-81
2023/03/25 00:25:32;;;;;;;2.35;1.50;;;;;;;12.16;55.85;99701.78;688380;28;1350;-81
2023/03/25 00:25:55;;;;;;;1.60;1.50;;;;;;;12.11;55.54;99690.44;691371;28;1332;-83
2023/03/25 00:26:15;;;;;;;1.88;1.70;;;;;;;12.18;55.81;99698.28;685823;28;1311;-81
2023/03/25 00:26:41;;;;;;;2.20;1.80;;;;;;;12.21;55.37;99707.91;685824;28;1281;-82
2023/03/25 00:27:02;;;;;;;1.98;1.60;;;;;;;12.20;55.37;99698.31;685732;28;1381;-80
2023/03/25 00:27:22;;;;;;;2.30;1.60;;;;;;;12.19;55.77;99701.78;688769;28;1216;-81
2023/03/25 00:27:45;;;;;;;2.10;1.50;;;;;;;12.18;55.37;99684.34;683246;28;1320;-81
2023/03/25 00:28:07;;;;;;;2.80;1.45;;;;;;;12.09;55.47;99676.47;683257;29;1237;-81
2023/03/25 00:28:32;;;;;;;5.93;1.45;;;;;;;12.17;55.11;99693.94;688709;28;1359;-81
2023/03/25 00:28:53;;;;;;;7.18;1.60;;;;;;;12.15;55.32;99689.56;683486;28;2026;-81
2023/03/25 00:29:15;;;;;;;3.63;1.50;;;;;;;12.24;55.18;99702.69;686105;28;989;-81
2023/03/25 00:29:35;;;;;;;3.75;1.52;;;;;;;12.13;55.22;99688.69;686056;28;1215;-82
2023/03/25 00:29:56;;;;;;;5.95;1.60;;;;;;;12.07;55.63;99679.09;686267;28;1191;-81
2023/03/25 00:30:18;;;;;;;6.20;1.60;;;;;;;12.15;55.56;99693.06;686152;28;1285;-81
2023/03/25 00:30:40;;;;;;;5.30;1.50;;;;;;;12.14;55.37;99690.44;680769;29;1514;-81
2023/03/25 00:31:04;;;;;;;1.73;1.50;;;;;;;12.20;55.46;99698.31;683440;29;1289;-80
2023/03/25 00:31:25;;;;;;;1.45;1.35;;;;;;;12.12;55.26;99684.34;683432;29;1273;-81
2023/03/25 00:31:46;;;;;;;2.10;1.50;;;;;;;12.12;55.44;99685.22;681094;29;955;-81
2023/03/25 00:32:06;;;;;;;3.05;1.70;;;;;;;12.18;55.28;99700.06;683568;28;1200;-81
2023/03/25 00:32:28;;;;;;;3.53;1.70;;;;;;;12.11;55.56;99682.59;683527;29;1158;-82
2023/03/25 00:32:51;;;;;;;4.00;1.80;;;;;;;12.07;55.64;99682.56;683396;28;1115;-82
2023/03/25 00:33:16;;;;;;;3.95;1.70;;;;;;;12.14;55.35;99677.34;688809;28;1272;-81
2023/03/25 00:33:40;;;;;;;3.75;1.60;;;;;;;12.15;55.24;99693.06;691216;28;1414;-82
2023/03/25 00:34:01;;;;;;;2.60;1.40;;;;;;;12.20;55.20;99716.63;686133;28;1093;-80
2023/03/25 00:34:21;;;;;;;2.13;1.30;;;;;;;12.28;55.17;99712.28;686040;28;1205;-81
2023/03/25 00:34:46;;;;;;;1.60;1.30;;;;;;;12.15;54.88;99686.94;685982;28;903;-81
2023/03/25 00:35:07;;;;;;;1.67;1.27;;;;;;;12.13;55.04;99700.03;685990;28;978;-81
2023/03/25 00:35:28;;;;;;;2.50;1.52;;;;;;;12.21;54.96;99707.91;683299;29;1171;-82
2023/03/25 00:35:53;;;;;;;2.53;1.60;;;;;;;12.25;55.13;99714.91;680597;29;1289;-82
2023/03/25 00:36:13;;;;;;;3.05;1.63;;;;;;;12.23;54.87;99713.16;681751;29;1108;-81
2023/03/25 00:36:36;;;;;;;3.23;1.43;;;;;;;12.12;55.02;99695.69;685836;28;1145;-82
2023/03/25 00:36:57;;;;;;;3.40;1.40;;;;;;;12.12;54.96;99703.53;682668;29;1320;-82
2023/03/25 00:37:20;;;;;;;2.63;1.63;;;;;;;12.14;54.72;99695.66;683060;28;1282;-81
2023/03/25 00:37:42;;;;;;;2.50;1.70;;;;;;;12.15;54.70;99710.47;683240;29;1172;-81
2023/03/25 00:38:03;;;;;;;3.13;1.80;;;;;;;12.11;54.52;99688.66;685920;28;1152;-81
2023/03/25 00:38:32;;;;;;;2.50;1.50;;;;;;;12.13;54.59;99697.41;685837;28;1156;-81
2023/03/25 00:38:54;;;;;;;2.00;1.50;;;;;;;12.24;54.52;99709.66;680654;29;845;-82
2023/03/25 00:39:14;;;;;;;1.60;1.40;;;;;;;12.12;54.41;99692.19;685896;28;1140;-81
2023/03/25 00:39:36;;;;;;;2.40;1.40;;;;;;;12.19;54.56;99697.41;685767;28;1276;-82
2023/03/25 00:39:57;;;;;;;2.80;1.40;;;;;;;12.16;54.78;99710.50;686010;28;800;-81
2023/03/25 00:40:17;;;;;;;4.97;1.70;;;;;;;12.07;54.67;99689.53;680360;29;1202;-82
2023/03/25 00:40:38;;;;;;;4.00;1.70;;;;;;;12.12;54.80;99711.38;683022;29;1991;-82
2023/03/25 00:41:16;;;;;;;4.30;1.80;;;;;;;12.07;54.56;99705.22;686000;28;772;-82
2023/03/25 00:41:40;;;;;;;2.92;1.80;;;;;;;12.03;54.75;99695.59;682947;29;1101;-82
2023/03/25 00:42:01;;;;;;;2.60;1.70;;;;;;;12.02;54.79;99692.13;685898;28;1178;-81
2023/03/25 00:42:24;;;;;;;1.60;1.40;;;;;;;12.11;54.82;99701.75;683213;28;1169;-82
2023/03/25 00:42:49;;;;;;;1.70;1.38;;;;;;;12.09;54.81;99700.00;680408;29;1195;-82
2023/03/25 00:43:10;;;;;;;1.85;1.20;;;;;;;12.09;54.83;99692.16;678085;29;1045;-82
2023/03/25 00:43:30;;;;;;;2.10;1.20;;;;;;;12.16;54.61;99713.09;685837;28;1184;-82
2023/03/25 00:43:53;;;;;;;2.25;1.23;;;;;;;12.12;54.64;99697.41;685788;28;1314;-81
2023/03/25 00:44:16;;;;;;;2.20;1.30;;;;;;;12.11;54.87;99698.28;685872;28;1088;-81
2023/03/25 00:44:36;;;;;;;2.60;1.40;;;;;;;12.05;54.51;99686.91;685764;28;1109;-81
2023/03/25 00:44:57;;;;;;;3.00;1.30;;;;;;;12.13;54.73;99696.53;683304;29;904;-82
2023/03/25 00:45:18;;;;;;;2.67;1.25;;;;;;;12.11;54.51;99698.28;682987;29;1070;-82
2023/03/25 00:45:39;;;;;;;3.33;1.27;;;;;;;12.05;54.70;99689.53;683031;29;1358;-81
2023/03/25 00:46:00;;;;;;;4.50;1.30;;;;;;;12.06;54.79;99686.03;685758;28;1233;-82
2023/03/25 00:46:23;;;;;;;4.35;1.20;;;;;;;12.11;54.56;99693.03;685965;28;1217;-82
2023/03/25 00:46:43;;;;;;;3.28;1.10;;;;;;;12.14;54.51;99701.78;682991;29;1394;-81
2023/03/25 00:47:04;;;;;;;2.50;1.37;;;;;;;12.16;54.17;99701.78;685742;28;1212;-81
2023/03/25 00:47:25;;;;;;;2.23;1.70;;;;;;;12.16;54.47;99694.81;688478;28;1064;-81
2023/03/25 00:47:46;;;;;;;2.85;1.88;;;;;;;12.11;54.18;99693.03;688552;28;1152;-81
2023/03/25 00:48:07;;;;;;;3.23;1.77;;;;;;;12.18;54.20;99710.50;683063;29;1102;-81
2023/03/25 00:48:28;;;;;;;3.63;1.60;;;;;;;12.15;54.45;99720.94;685750;28;1208;-81
2023/03/25 00:49:11;;;;;;;3.47;1.67;;;;;;;12.22;54.51;99763.72;688471;28;1229;-82
2023/03/25 00:49:31;;;;;;;3.15;1.50;;;;;;;12.25;54.41;99720.13;683013;29;1162;-81
2023/03/25 00:49:52;;;;;;;2.93;1.50;;;;;;;12.21;54.09;99720.97;683162;28;1292;-81
2023/03/25 00:50:13;;;;;;;3.08;1.50;;;;;;;12.15;53.78;99706.13;683163;29;1010;-80
2023/03/25 00:50:34;;;;;;;3.78;1.42;;;;;;;12.22;53.97;99707.03;685848;28;1099;-81
2023/03/25 00:51:07;;;;;;;4.33;1.50;;;;;;;12.24;53.92;99717.50;688340;28;923;-81
2023/03/25 00:51:30;;;;;;;4.82;1.80;;;;;;;12.27;53.81;99705.31;682837;29;1002;-81
2023/03/25 00:51:51;;;;;;;3.70;1.75;;;;;;;12.25;54.01;99714.03;685667;28;1086;-82
2023/03/25 00:52:12;;;;;;;4.38;1.73;;;;;;;12.24;53.72;99707.03;685889;28;1152;-81
2023/03/25 00:52:33;;;;;;;3.13;1.50;;;;;;;12.24;53.93;99713.16;685784;28;1158;-81
2023/03/25 00:52:53;;;;;;;3.93;1.80;;;;;;;12.29;53.30;99715.78;683130;28;1297;-81
2023/03/25 00:53:26;;;;;;;4.18;2.10;;;;;;;12.26;53.66;99706.19;683153;29;1056;-82
2023/03/25 00:54:01;;;;;;;2.95;1.70;;;;;;;12.30;53.65;99710.53;683066;29;1857;-81
2023/03/25 00:54:22;;;;;;;2.83;1.60;;;;;;;12.31;53.64;99722.75;685859;28;1174;-81
2023/03/25 00:54:44;;;;;;;3.05;1.60;;;;;;;12.20;53.65;99704.44;683120;29;1089;-81
2023/03/25 00:55:06;;;;;;;2.95;1.70;;;;;;;12.25;53.90;99719.25;680485;29;1270;-82
2023/03/25 00:55:26;;;;;;;5.03;1.95;;;;;;;12.32;53.72;99721.91;680486;29;1092;-82
2023/03/25 00:55:47;;;;;;;5.25;2.30;;;;;;;12.23;53.76;99700.94;683259;29;1218;-82
2023/03/25 00:56:07;;;;;;;4.07;1.90;;;;;;;12.22;53.87;99701.78;683143;29;1110;-81
2023/03/25 00:56:29;;;;;;;2.47;1.75;;;;;;;12.13;53.77;99694.81;688376;28;1204;-82
2023/03/25 00:56:51;;;;;;;4.38;1.90;;;;;;;12.19;53.81;99701.78;682775;29;1277;-81
2023/03/25 00:57:12;;;;;;;6.82;2.10;;;;;;;12.17;54.05;99698.31;680463;29;1029;-82
2023/03/25 00:57:33;;;;;;;6.55;2.00;;;;;;;12.22;53.95;99714.88;680475;29;1199;-81
2023/03/25 00:57:53;;;;;;;4.90;1.77;;;;;;;12.18;54.16;99700.06;683229;29;1353;-81
2023/03/25 00:58:14;;;;;;;2.97;1.65;;;;;;;12.14;53.90;99687.81;683008;29;1178;-81
2023/03/25 00:58:35;;;;;;;3.53;1.73;;;;;;;12.13;54.10;99697.41;685737;28;1171;-81
2023/03/25 00:58:57;;;;;;;4.00;1.90;;;;;;;12.20;53.88;99706.16;683168;29;1205;-81
2023/03/25 00:59:17;;;;;;;3.38;1.73;;;;;;;12.14;53.82;99704.41;683009;29;1136;-82
2023/03/25 00:59:38;;;;;;;2.47;1.70;;;;;;;12.12;54.03;99716.59;685690;28;1476;-81
2023/03/25 00:59:59;;;;;;;2.95;1.80;;;;;;;12.18;53.78;99702.66;680510;29;1283;-81
2023/03/25 01:00:21;;;;;;;2.97;1.70;;;;;;;12.11;53.81;99709.59;680381;29;1285;-82
2023/03/25 01:00:41;;;;;;;3.43;1.50;;;;;;;12.14;54.04;99700.88;688179;28;1985;-82
2023/03/25 01:01:14;;;;;;;3.75;1.50;;;;;;;12.14;53.98;99703.50;688342;28;1370;-82
2023/03/25 01:01:38;;;;;;;5.75;1.70;;;;;;;12.07;54.03;99698.25;685604;28;1218;-81
2023/03/25 01:01:59;;;;;;;5.85;1.77;;;;;;;12.04;54.32;99689.53;683219;28;1219;-82
2023/03/25 01:02:21;;;;;;;4.55;1.88;;;;;;;12.12;54.41;99705.25;685730;28;1278;-81
2023/03/25 01:02:44;;;;;;;3.25;1.70;;;;;;;12.02;54.14;99699.97;691121;28;1290;-81
2023/03/25 01:03:05;;;;;;;3.55;1.70;;;;;;;12.02;54.32;99712.16;688461;28;1011;-82
2023/03/25 01:03:29;;;;;;;5.57;1.70;;;;;;;12.00;54.09;99699.09;688540;28;1093;-80
2023/03/25 01:03:58;;;;;;;4.30;1.70;;;;;;;12.01;54.02;99695.63;685710;28;1285;-82
2023/03/25 01:04:19;;;;;;;4.10;1.90;;;;;;;12.10;54.33;99697.38;687636;28;1539;-81
2023/03/25 01:04:40;;;;;;;2.75;2.00;;;;;;;12.04;54.07;99693.00;685615;28;1234;-81
2023/03/25 01:05:01;;;;;;;2.92;1.90;;;;;;;12.04;53.88;99713.94;685789;28;1201;-81
2023/03/25 01:05:21;;;;;;;4.65;2.10;;;;;;;12.06;54.35;99717.41;685771;28;1320;-81
2023/03/25 01:05:44;;;;;;;6.10;1.92;;;;;;;12.01;54.18;99708.69;688332;28;1278;-80
2023/03/25 01:06:16;;;;;;;6.28;1.98;;;;;;;12.09;54.07;99739.25;688434;28;1165;-82
2023/03/25 01:06:42;;;;;;;4.18;1.70;;;;;;;12.07;53.85;99692.16;683056;29;1014;-82
2023/03/25 01:07:03;;;;;;;2.58;1.60;;;;;;;12.08;53.79;99709.59;683057;29;1076;-82
2023/03/25 01:07:42;;;;;;;2.10;1.53;;;;;;;12.06;53.71;99701.72;688457;28;1223;-82
2023/03/25 01:08:03;;;;;;;3.63;1.90;;;;;;;12.12;53.75;99716.59;683079;29;1208;-81
2023/03/25 01:08:24;;;;;;;3.80;1.90;;;;;;;12.05;53.89;99694.75;682901;29;1237;-82
2023/03/25 01:08:44;;;;;;;3.97;1.93;;;;;;;12.05;54.23;99710.44;685630;28;1078;-82
2023/03/25 01:09:07;;;;;;;3.80;1.75;;;;;;;12.13;53.90;99712.22;682984;29;1390;-81
2023/03/25 01:09:29;;;;;;;4.10;1.95;;;;;;;12.11;53.76;99704.38;688213;28;1303;-82
2023/03/25 01:09:50;;;;;;;3.35;1.90;;;;;;;12.00;54.09;99696.50;691123;28;1350;-81
2023/03/25 01:10:11;;;;;;;4.20;1.90;;;;;;;12.09;54.21;99731.41;688359;28;1008;-81
2023/03/25 01:10:34;;;;;;;3.45;1.60;;;;;;;12.05;54.07;99707.81;685796;28;981;-82
2023/03/25 01:10:55;;;;;;;4.43;1.60;;;;;;;12.09;53.95;99695.66;685725;28;1103;-82
2023/03/25 01:11:19;;;;;;;3.85;1.70;;;;;;;12.11;53.56;99698.28;685245;28;1071;-82
2023/03/25 01:11:44;;;;;;;4.47;1.77;;;;;;;12.00;53.94;99709.56;683147;28;1153;-82
2023/03/25 01:12:05;;;;;;;3.67;1.90;;;;;;;12.00;54.16;99717.41;685719;28;1540;-82
2023/03/25 01:12:26;;;;;;;2.57;1.70;;;;;;;11.88;54.14;99704.25;685800;28;1069;-82
2023/03/25 01:12:47;;;;;;;2.20;1.70;;;;;;;11.78;54.19;99685.91;677757;29;1376;-81
2023/03/25 01:13:09;;;;;;;3.75;1.92;;;;;;;11.84;54.24;99692.03;680481;29;1125;-83
2023/03/25 01:13:29;;;;;;;4.57;2.20;;;;;;;11.85;54.23;99685.97;683066;29;1265;-82
2023/03/25 01:13:50;;;;;;;7.00;2.28;;;;;;;11.83;54.36;99704.25;685887;28;1089;-82
2023/03/25 01:14:15;;;;;;;6.03;2.20;;;;;;;11.79;54.35;99689.38;683035;29;974;-82
2023/03/25 01:14:35;;;;;;;5.65;2.10;;;;;;;11.79;54.33;99702.47;682987;29;1344;-81
2023/03/25 01:14:56;;;;;;;2.70;1.80;;;;;;;11.81;54.66;99715.53;680582;29;813;-81
2023/03/25 01:15:17;;;;;;;2.35;1.70;;;;;;;11.83;54.48;99705.97;680427;29;1279;-82
2023/03/25 01:15:38;;;;;;;4.30;1.90;;;;;;;11.79;54.30;99700.72;683035;28;1222;-82
2023/03/25 01:15:59;;;;;;;4.65;2.00;;;;;;;11.84;54.52;99721.66;685858;28;1316;-82
2023/03/25 01:16:20;;;;;;;4.55;2.00;;;;;;;11.77;54.39;99698.97;683290;29;1269;-82
2023/03/25 01:16:41;;;;;;;5.78;2.50;;;;;;;11.83;54.34;99705.97;680755;29;1269;-81
2023/03/25 01:17:02;;;;;;;5.60;2.33;;;;;;;11.86;54.61;99764.38;683468;29;1221;-82
2023/03/25 01:17:23;;;;;;;6.03;2.30;;;;;;;11.82;54.54;99706.84;683805;29;1258;-82
2023/03/25 01:17:44;;;;;;;2.95;1.80;;;;;;;11.79;54.52;99703.34;686156;28;1300;-81
2023/03/25 01:18:05;;;;;;;3.40;1.83;;;;;;;11.74;54.56;99696.34;689077;28;1301;-82
2023/03/25 01:18:25;;;;;;;4.85;2.33;;;;;;;11.73;54.39;99698.06;689036;28;1088;-81
2023/03/25 01:18:46;;;;;;;4.07;2.10;;;;;;;11.72;54.52;99698.94;691757;28;1239;-82
2023/03/25 01:19:07;;;;;;;4.50;2.10;;;;;;;11.76;54.40;99697.22;686518;28;1190;-81
2023/03/25 01:19:28;;;;;;;3.72;1.63;;;;;;;11.75;54.56;99701.56;686431;28;1433;-82
2023/03/25 01:19:49;;;;;;;5.95;2.00;;;;;;;11.82;54.21;99701.59;686577;28;1203;-81
2023/03/25 01:20:11;;;;;;;5.03;1.80;;;;;;;11.78;53.80;99712.06;687085;28;1096;-81
2023/03/25 01:20:31;;;;;;;4.43;1.87;;;;;;;11.84;54.23;99710.31;684514;28;1180;-81
2023/03/25 01:20:52;;;;;;;3.28;1.75;;;;;;;11.79;54.25;99697.22;687199;28;1910;-82
2023/03/25 01:21:12;;;;;;;5.90;1.80;;;;;;;11.79;54.11;99698.13;686982;28;1236;-81
2023/03/25 01:21:35;;;;;;;7.70;2.07;;;;;;;11.78;54.17;99696.38;687860;28;1261;-81
2023/03/25 01:21:56;;;;;;;8.05;1.90;;;;;;;11.89;54.06;99699.06;686354;28;1236;-81
2023/03/25 01:22:17;;;;;;;7.18;1.98;;;;;;;11.85;54.35;99701.63;691514;28;1183;-81
2023/03/25 01:22:40;;;;;;;5.70;1.70;;;;;;;11.79;54.15;99682.44;692611;28;1045;-82
2023/03/25 01:23:01;;;;;;;4.28;1.88;;;;;;;11.87;54.11;99705.13;686438;28;1224;-81
2023/03/25 01:23:22;;;;;;;3.22;1.77;;;;;;;11.81;54.31;99697.25;689329;28;724;-81
2023/03/25 01:23:43;;;;;;;2.90;1.67;;;;;;;11.88;54.16;99718.22;683966;29;1223;-81
2023/03/25 01:24:05;;;;;;;2.17;1.40;;;;;;;11.85;53.89;99706.88;685474;28;1278;-81
2023/03/25 01:24:26;;;;;;;2.70;1.60;;;;;;;11.77;54.43;99698.97;686654;28;1032;-82
2023/03/25 01:24:46;;;;;;;2.50;1.65;;;;;;;11.75;54.24;99698.09;686425;28;938;-82
2023/03/25 01:25:07;;;;;;;2.97;1.70;;;;;;;11.72;54.43;99701.56;686240;28;964;-80
2023/03/25 01:25:28;;;;;;;4.22;1.98;;;;;;;11.85;54.49;99709.50;686389;28;1167;-81
2023/03/25 01:25:48;;;;;;;5.50;2.30;;;;;;;11.81;54.41;99720.78;686202;28;1394;-81
2023/03/25 01:26:11;;;;;;;5.15;2.22;;;;;;;11.76;54.38;99718.13;680836;29;1077;-81
2023/03/25 01:26:33;;;;;;;3.63;1.92;;;;;;;11.75;54.48;99712.03;688826;28;1135;-81
2023/03/25 01:26:53;;;;;;;2.83;1.98;;;;;;;11.81;54.37;99705.97;686372;28;1404;-81
2023/03/25 01:27:14;;;;;;;2.50;1.73;;;;;;;11.78;54.46;99692.88;685967;28;1175;-82
2023/03/25 01:27:35;;;;;;;3.15;1.70;;;;;;;11.82;54.37;99696.38;686038;28;1190;-82
2023/03/25 01:27:55;;;;;;;3.03;1.57;;;;;;;11.76;54.14;99702.44;686275;28;882;-81
2023/03/25 01:28:16;;;;;;;4.03;1.70;;;;;;;11.78;54.42;99699.00;688864;28;1043;-82
2023/03/25 01:28:38;;;;;;;5.35;1.92;;;;;;;11.70;54.56;99691.94;686016;28;1217;-82
2023/03/25 01:28:59;;;;;;;5.00;1.80;;;;;;;11.75;54.54;99691.09;686045;28;1528;-81
2023/03/25 01:29:20;;;;;;;4.32;1.90;;;;;;;11.71;54.55;99689.38;691304;28;1363;-81
2023/03/25 01:29:41;;;;;;;3.38;1.70;;;;;;;11.79;54.63;99705.97;683064;29;1344;-82
2023/03/25 01:30:01;;;;;;;4.63;2.00;;;;;;;11.68;54.62;99694.53;685882;28;1032;-81
2023/03/25 01:30:22;;;;;;;6.45;1.90;;;;;;;11.68;54.59;99691.94;688609;28;1158;-81
2023/03/25 01:30:42;;;;;;;5.87;1.73;;;;;;;11.69;54.50;99693.72;680566;29;1227;-81
2023/03/25 01:31:05;;;;;;;4.90;1.60;;;;;;;11.71;54.55;99702.44;688519;28;1147;-81
2023/03/25 01:31:28;;;;;;;2.85;1.60;;;;;;;11.77;54.78;99715.53;691438;28;1290;-81
2023/03/25 01:31:49;;;;;;;7.25;1.75;;;;;;;11.72;54.40;99698.94;688574;28;1239;-81
2023/03/25 01:32:10;;;;;;;11.60;2.30;;;;;;;11.76;54.35;99698.13;685768;28;1092;-82
2023/03/25 01:32:30;;;;;;;12.93;2.30;;;;;;;11.64;54.61;99682.31;685898;28;1125;-82
2023/03/25 01:32:51;;;;;;;5.60;1.92;;;;;;;11.72;54.47;99693.72;680653;29;1208;-81
2023/03/25 01:33:13;;;;;;;4.47;1.90;;;;;;;11.69;54.41;99693.72;683165;29;1120;-81
2023/03/25 01:33:33;;;;;;;4.72;1.90;;;;;;;11.73;54.48;99682.41;685726;28;1107;-81
2023/03/25 01:33:58;;;;;;;5.77;1.93;;;;;;;11.76;54.48;99705.97;683259;29;856;-82
2023/03/25 01:34:19;;;;;;;4.70;1.85;;;;;;;11.75;54.63;99687.63;685691;28;1389;-82
2023/03/25 01:34:41;;;;;;;2.90;1.80;;;;;;;11.78;54.30;99695.47;682962;29;1074;-82
2023/03/25 01:35:04;;;;;;;2.20;1.70;;;;;;;11.68;54.41;99686.72;682835;29;1382;-82
2023/03/25 01:35:24;;;;;;;3.70;1.88;;;;;;;11.72;54.42;99696.34;683060;29;1260;-82
2023/03/25 01:36:08;;;;;;;3.70;1.80;;;;;;;11.72;54.34;99685.00;683085;29;1310;-82
2023/03/25 01:36:29;;;;;;;5.15;1.90;;;;;;;11.74;54.70;99699.81;683069;29;1039;-82
2023/03/25 01:36:49;;;;;;;4.30;1.90;;;;;;;11.72;54.71;99696.34;688426;28;1228;-82
2023/03/25 01:37:10;;;;;;;3.88;2.10;;;;;;;11.74;54.66;99702.44;685690;28;1150;-80
2023/03/25 01:37:32;;;;;;;3.40;1.95;;;;;;;11.70;54.74;99703.28;685711;28;1172;-81
2023/03/25 01:37:53;;;;;;;5.68;2.10;;;;;;;11.71;54.51;99705.03;683174;29;925;-81
2023/03/25 01:38:14;;;;;;;5.25;1.90;;;;;;;11.73;54.80;99710.28;680475;29;1081;-81
2023/03/25 01:38:36;;;;;;;3.85;1.80;;;;;;;11.81;54.35;99712.94;685621;28;1214;-82
2023/03/25 01:38:58;;;;;;;3.17;1.80;;;;;;;11.73;54.39;99697.22;685772;28;1330;-82
2023/03/25 01:39:19;;;;;;;3.33;1.75;;;;;;;11.77;54.41;99704.19;683027;29;1344;-82
2023/03/25 01:39:39;;;;;;;2.47;1.67;;;;;;;11.73;54.31;99692.84;685741;28;1226;-82
2023/03/25 01:40:00;;;;;;;3.40;1.63;;;;;;;11.72;54.51;99691.09;685831;28;1146;-82
2023/03/25 01:40:23;;;;;;;4.07;1.80;;;;;;;11.77;54.57;99702.47;688536;28;1175;-81
2023/03/25 01:40:45;;;;;;;4.00;1.80;;;;;;;11.89;54.58;99716.47;688206;28;1915;-82
2023/03/25 01:41:07;;;;;;;4.57;1.90;;;;;;;11.83;54.18;99692.91;688314;28;1008;-81
2023/03/25 01:41:28;;;;;;;4.70;1.80;;;;;;;11.84;54.24;99731.22;683025;28;1353;-82
2023/03/25 01:41:50;;;;;;;4.13;1.90;;;;;;;11.84;54.15;99690.28;685791;28;1112;-81
2023/03/25 01:42:11;;;;;;;4.25;1.90;;;;;;;11.92;54.33;99706.00;690976;28;1296;-81
2023/03/25 01:42:32;;;;;;;3.70;2.13;;;;;;;11.78;54.28;99698.09;683057;29;1337;-81
2023/03/25 01:42:52;;;;;;;3.50;2.00;;;;;;;11.87;54.40;99699.91;685660;28;1349;-81
2023/03/25 01:43:14;;;;;;;2.70;1.90;;;;;;;11.79;54.41;99687.66;683069;29;1017;-81
2023/03/25 01:43:34;;;;;;;3.10;1.75;;;;;;;11.91;54.02;99712.09;682825;29;1338;-82
2023/03/25 01:44:29;;;;;;;4.85;1.80;;;;;;;11.89;54.26;99704.28;685675;28;1283;-81
2023/03/25 01:44:50;;;;;;;5.50;2.00;;;;;;;11.96;54.18;99712.13;674907;29;1410;-81
2023/03/25 01:45:21;;;;;;;5.13;1.88;;;;;;;11.92;54.28;99706.00;669858;29;1270;-81
2023/03/25 01:45:44;;;;;;;3.03;1.65;;;;;;;11.87;54.37;99684.22;674281;29;1054;-82
2023/03/25 01:46:04;;;;;;;1.92;1.60;;;;;;;11.79;54.16;99687.66;685695;28;1539;-82
2023/03/25 01:46:25;;;;;;;1.90;1.70;;;;;;;11.83;54.43;99690.28;683105;28;1160;-81
2023/03/25 01:46:47;;;;;;;2.47;1.90;;;;;;;11.77;54.42;99681.56;685638;28;1257;-81
2023/03/25 01:47:09;;;;;;;3.17;2.03;;;;;;;11.87;54.79;99695.53;688333;28;2035;-82
2023/03/25 01:47:29;;;;;;;5.57;2.30;;;;;;;11.79;54.52;99673.72;688451;28;1122;-81